createdAt,value
2022-10-05T00:00:02.050Z,1007.2
2022-10-05T00:01:17.357Z,1007.2
2022-10-05T00:02:33.651Z,1007.1
2022-10-05T00:03:49.948Z,1007.1
2022-10-05T00:05:06.239Z,1007.2
2022-10-05T00:06:22.549Z,1007.1
2022-10-05T00:07:38.830Z,1007.1
2022-10-05T00:08:55.123Z,1007.1
2022-10-05T00:10:11.409Z,1007.2
2022-10-05T00:11:27.712Z,1007.2
2022-10-05T00:12:44.002Z,1007.2
2022-10-05T00:14:00.293Z,1007.2
2022-10-05T00:15:16.584Z,1007.2
2022-10-05T00:16:32.884Z,1007.2
2022-10-05T00:17:48.187Z,1007.2
2022-10-05T00:19:04.483Z,1007.1
2022-10-05T00:20:20.781Z,1007.2
2022-10-05T00:21:37.070Z,1007.2
2022-10-05T00:22:53.367Z,1007.2
2022-10-05T00:24:09.658Z,1007.2
2022-10-05T00:25:25.953Z,1007.2
2022-10-05T00:26:42.246Z,1007.2
2022-10-05T00:27:58.544Z,1007.2
2022-10-05T00:29:14.846Z,1007.2
2022-10-05T00:30:31.124Z,1007.2
2022-10-05T00:31:47.420Z,1007.2
2022-10-05T00:33:03.709Z,1007.2
2022-10-05T00:34:19.024Z,1007.2
2022-10-05T00:35:35.314Z,1007.2
2022-10-05T00:36:51.606Z,1007.2
2022-10-05T00:38:07.908Z,1007.2
2022-10-05T00:39:24.200Z,1007.2
2022-10-05T00:40:40.484Z,1007.2
2022-10-05T00:41:56.786Z,1007.2
2022-10-05T00:43:13.073Z,1007.2
2022-10-05T00:44:29.380Z,1007.2
2022-10-05T00:45:45.661Z,1007.1
2022-10-05T00:47:01.967Z,1007.2
2022-10-05T00:48:18.255Z,1007.2
2022-10-05T00:49:34.538Z,1007.1
2022-10-05T00:50:49.850Z,1007.1
2022-10-05T00:52:06.157Z,1007.1
2022-10-05T00:53:22.443Z,1007.1
2022-10-05T00:54:38.739Z,1007.1
2022-10-05T00:55:55.024Z,1007.1
2022-10-05T00:57:11.316Z,1007.1
2022-10-05T00:58:27.610Z,1007.1
2022-10-05T00:59:43.917Z,1007
2022-10-05T01:01:00.197Z,1007.1
2022-10-05T01:02:16.488Z,1007
2022-10-05T01:03:32.782Z,1007
2022-10-05T01:04:49.076Z,1007
2022-10-05T01:06:05.366Z,1007
2022-10-05T01:07:20.687Z,1006.9
2022-10-05T01:08:36.972Z,1006.9
2022-10-05T01:09:53.263Z,1007
2022-10-05T01:11:09.576Z,1007
2022-10-05T01:12:25.850Z,1007
2022-10-05T01:13:42.154Z,1007.1
2022-10-05T01:14:58.452Z,1007.1
2022-10-05T01:16:14.735Z,1007.1
2022-10-05T01:17:31.032Z,1007.1
2022-10-05T01:18:47.318Z,1007.1
2022-10-05T01:20:03.622Z,1007.1
2022-10-05T01:21:19.915Z,1007.1
2022-10-05T01:22:36.204Z,1007.1
2022-10-05T01:23:51.515Z,1007.2
2022-10-05T01:25:07.804Z,1007.2
2022-10-05T01:26:24.102Z,1007.2
2022-10-05T01:27:40.393Z,1007.2
2022-10-05T01:28:56.693Z,1007.2
2022-10-05T01:30:12.977Z,1007.2
2022-10-05T01:31:29.273Z,1007.2
2022-10-05T01:32:45.562Z,1007.2
2022-10-05T01:34:01.856Z,1007.2
2022-10-05T01:35:18.147Z,1007.3
2022-10-05T01:36:34.447Z,1007.2
2022-10-05T01:37:50.742Z,1007.2
2022-10-05T01:39:07.032Z,1007.3
2022-10-05T01:40:22.344Z,1007.3
2022-10-05T01:41:38.632Z,1007.3
2022-10-05T01:42:54.936Z,1007.3
2022-10-05T01:44:11.222Z,1007.3
2022-10-05T01:45:27.512Z,1007.3
2022-10-05T01:46:43.818Z,1007.2
2022-10-05T01:48:00.100Z,1007.2
2022-10-05T01:49:16.405Z,1007.1
2022-10-05T01:50:32.694Z,1007.1
2022-10-05T01:51:48.983Z,1007.1
2022-10-05T01:53:05.286Z,1007
2022-10-05T01:54:21.571Z,1007
2022-10-05T01:55:37.866Z,1007.1
2022-10-05T01:56:53.173Z,1007
2022-10-05T01:58:09.469Z,1007
2022-10-05T01:59:25.764Z,1006.9
2022-10-05T02:00:42.060Z,1007
2022-10-05T02:01:58.345Z,1007
2022-10-05T02:03:14.637Z,1007.1
2022-10-05T02:04:30.943Z,1007
2022-10-05T02:05:47.224Z,1007
2022-10-05T02:07:03.521Z,1007
2022-10-05T02:08:19.823Z,1006.9
2022-10-05T02:09:36.115Z,1007
2022-10-05T02:10:52.400Z,1007
2022-10-05T02:12:08.692Z,1007
2022-10-05T02:13:23.998Z,1007
2022-10-05T02:14:40.294Z,1007.1
2022-10-05T02:15:56.591Z,1007
2022-10-05T02:17:12.886Z,1007.1
2022-10-05T02:18:29.188Z,1007
2022-10-05T02:19:45.479Z,1007.1
2022-10-05T02:21:01.761Z,1007.1
2022-10-05T02:22:18.066Z,1007.1
2022-10-05T02:23:34.356Z,1007.1
2022-10-05T02:24:50.000Z,1007.2
2022-10-05T02:26:06.950Z,1007.2
2022-10-05T02:27:23.232Z,1007.2
2022-10-05T02:28:39.537Z,1007.2
2022-10-05T02:29:54.843Z,1007.2
2022-10-05T02:31:11.126Z,1007.1
2022-10-05T02:32:27.430Z,1007.1
2022-10-05T02:33:43.727Z,1007.1
2022-10-05T02:35:00.016Z,1007.1
2022-10-05T02:36:16.310Z,1007.1
2022-10-05T02:37:32.599Z,1007.1
2022-10-05T02:38:48.890Z,1007.1
2022-10-05T02:40:05.188Z,1007.1
2022-10-05T02:41:21.481Z,1007.1
2022-10-05T02:42:37.782Z,1007.1
2022-10-05T02:43:54.062Z,1007
2022-10-05T02:45:10.366Z,1007
2022-10-05T02:46:25.667Z,1007
2022-10-05T02:47:41.967Z,1007
2022-10-05T02:48:58.255Z,1007
2022-10-05T02:50:14.553Z,1007
2022-10-05T02:51:30.841Z,1007
2022-10-05T02:52:47.143Z,1007
2022-10-05T02:54:02.449Z,1007
2022-10-05T02:55:18.742Z,1007
2022-10-05T02:56:35.048Z,1007
2022-10-05T02:57:51.334Z,1007
2022-10-05T02:59:07.636Z,1007
2022-10-05T03:00:23.920Z,1007
2022-10-05T03:01:40.209Z,1007
2022-10-05T03:02:56.507Z,1007
2022-10-05T03:04:12.796Z,1007
2022-10-05T03:05:29.100Z,1007
2022-10-05T03:06:45.389Z,1007
2022-10-05T03:08:01.679Z,1007
2022-10-05T03:09:17.981Z,1007
2022-10-05T03:10:33.298Z,1006.9
2022-10-05T03:11:49.587Z,1006.9
2022-10-05T03:13:05.876Z,1007
2022-10-05T03:14:22.180Z,1006.9
2022-10-05T03:15:38.468Z,1006.9
2022-10-05T03:16:54.748Z,1006.9
2022-10-05T03:18:11.049Z,1007
2022-10-05T03:19:27.341Z,1006.9
2022-10-05T03:20:43.634Z,1006.9
2022-10-05T03:21:59.923Z,1006.9
2022-10-05T03:23:16.221Z,1006.9
2022-10-05T03:24:32.515Z,1006.8
2022-10-05T03:25:48.801Z,1006.8
2022-10-05T03:27:04.111Z,1006.8
2022-10-05T03:28:20.411Z,1006.8
2022-10-05T03:29:36.700Z,1006.8
2022-10-05T03:30:53.007Z,1006.8
2022-10-05T03:32:09.296Z,1006.8
2022-10-05T03:33:25.585Z,1006.8
2022-10-05T03:34:41.876Z,1006.7
2022-10-05T03:35:58.187Z,1006.8
2022-10-05T03:37:14.461Z,1006.8
2022-10-05T03:38:30.755Z,1006.8
2022-10-05T03:39:47.067Z,1006.7
2022-10-05T03:41:03.344Z,1006.7
2022-10-05T03:42:19.641Z,1006.8
2022-10-05T03:43:34.952Z,1006.8
2022-10-05T03:44:51.248Z,1006.8
2022-10-05T03:46:07.546Z,1006.8
2022-10-05T03:47:23.844Z,1006.8
2022-10-05T03:48:40.141Z,1006.8
2022-10-05T03:49:56.425Z,1006.8
2022-10-05T03:51:12.723Z,1006.8
2022-10-05T03:52:29.010Z,1006.7
2022-10-05T03:53:45.305Z,1006.7
2022-10-05T03:55:01.594Z,1006.7
2022-10-05T03:56:17.892Z,1006.7
2022-10-05T03:57:34.178Z,1006.7
2022-10-05T03:58:50.478Z,1006.7
2022-10-05T04:00:05.783Z,1006.7
2022-10-05T04:01:22.094Z,1006.7
2022-10-05T04:02:38.379Z,1006.6
2022-10-05T04:03:54.672Z,1006.6
2022-10-05T04:05:10.960Z,1006.6
2022-10-05T04:06:27.258Z,1006.6
2022-10-05T04:07:43.549Z,1006.6
2022-10-05T04:08:59.838Z,1006.6
2022-10-05T04:10:16.137Z,1006.6
2022-10-05T04:11:32.434Z,1006.6
2022-10-05T04:12:48.740Z,1006.6
2022-10-05T04:14:05.019Z,1006.6
2022-10-05T04:15:21.310Z,1006.6
2022-10-05T04:16:36.619Z,1006.6
2022-10-05T04:17:52.920Z,1006.6
2022-10-05T04:19:09.208Z,1006.5
2022-10-05T04:20:25.500Z,1006.6
2022-10-05T04:21:41.802Z,1006.6
2022-10-05T04:22:58.087Z,1006.6
2022-10-05T04:24:14.389Z,1006.6
2022-10-05T04:25:30.689Z,1006.6
2022-10-05T04:26:46.971Z,1006.6
2022-10-05T04:28:03.267Z,1006.6
2022-10-05T04:29:19.564Z,1006.6
2022-10-05T04:30:35.852Z,1006.6
2022-10-05T04:31:52.152Z,1006.6
2022-10-05T04:33:07.463Z,1006.6
2022-10-05T04:34:23.754Z,1006.6
2022-10-05T04:35:40.047Z,1006.6
2022-10-05T04:36:56.345Z,1006.6
2022-10-05T04:38:12.644Z,1006.6
2022-10-05T04:39:28.924Z,1006.6
2022-10-05T04:40:45.219Z,1006.6
2022-10-05T04:42:01.524Z,1006.6
2022-10-05T04:43:17.815Z,1006.6
2022-10-05T04:44:34.106Z,1006.5
2022-10-05T04:45:50.399Z,1006.5
2022-10-05T04:47:06.700Z,1006.5
2022-10-05T04:48:22.978Z,1006.5
2022-10-05T04:49:38.301Z,1006.5
2022-10-05T04:50:54.588Z,1006.5
2022-10-05T04:52:10.824Z,1006.5
2022-10-05T04:53:27.116Z,1006.6
2022-10-05T04:54:43.368Z,1006.6
2022-10-05T04:55:59.613Z,1006.6
2022-10-05T04:57:15.910Z,1006.6
2022-10-05T04:58:32.205Z,1006.6
2022-10-05T04:59:48.458Z,1006.6
2022-10-05T05:01:04.689Z,1006.6
2022-10-05T05:02:20.000Z,1006.6
2022-10-05T05:03:37.180Z,1006.6
2022-10-05T05:04:53.417Z,1006.6
2022-10-05T05:06:08.677Z,1006.6
2022-10-05T05:07:24.914Z,1006.6
2022-10-05T05:08:41.153Z,1006.7
2022-10-05T05:09:57.404Z,1006.7
2022-10-05T05:11:13.649Z,1006.6
2022-10-05T05:12:29.878Z,1006.7
2022-10-05T05:13:46.127Z,1006.7
2022-10-05T05:15:02.352Z,1006.7
2022-10-05T05:16:18.606Z,1006.7
2022-10-05T05:17:34.840Z,1006.7
2022-10-05T05:18:51.076Z,1006.7
2022-10-05T05:20:07.323Z,1006.7
2022-10-05T05:21:23.571Z,1006.7
2022-10-05T05:22:38.823Z,1006.7
2022-10-05T05:23:55.050Z,1006.7
2022-10-05T05:25:11.299Z,1006.6
2022-10-05T05:26:27.537Z,1006.7
2022-10-05T05:27:43.768Z,1006.6
2022-10-05T05:29:00.020Z,1006.7
2022-10-05T05:30:16.266Z,1006.7
2022-10-05T05:31:32.488Z,1006.7
2022-10-05T05:32:48.736Z,1006.7
2022-10-05T05:34:04.982Z,1006.7
2022-10-05T05:35:21.210Z,1006.7
2022-10-05T05:36:37.454Z,1006.7
2022-10-05T05:37:53.686Z,1006.6
2022-10-05T05:39:08.946Z,1006.6
2022-10-05T05:40:25.197Z,1006.6
2022-10-05T05:41:41.423Z,1006.6
2022-10-05T05:42:57.669Z,1006.6
2022-10-05T05:44:13.903Z,1006.5
2022-10-05T05:45:30.150Z,1006.5
2022-10-05T05:46:46.386Z,1006.5
2022-10-05T05:48:02.624Z,1006.4
2022-10-05T05:49:18.859Z,1006.4
2022-10-05T05:50:35.101Z,1006.4
2022-10-05T05:51:51.339Z,1006.4
2022-10-05T05:53:07.586Z,1006.3
2022-10-05T05:54:23.820Z,1006.3
2022-10-05T05:55:39.079Z,1006.4
2022-10-05T05:56:55.319Z,1006.4
2022-10-05T05:58:11.559Z,1006.4
2022-10-05T05:59:27.794Z,1006.5
2022-10-05T06:00:44.033Z,1006.4
2022-10-05T06:02:00.277Z,1006.4
2022-10-05T06:03:16.514Z,1006.4
2022-10-05T06:04:32.766Z,1006.4
2022-10-05T06:05:48.999Z,1006.5
2022-10-05T06:07:05.251Z,1006.4
2022-10-05T06:08:21.481Z,1006.4
2022-10-05T06:09:37.715Z,1006.4
2022-10-05T06:10:53.955Z,1006.4
2022-10-05T06:12:09.207Z,1006.4
2022-10-05T06:13:25.454Z,1006.4
2022-10-05T06:14:41.687Z,1006.4
2022-10-05T06:15:57.935Z,1006.3
2022-10-05T06:17:14.166Z,1006.2
2022-10-05T06:18:30.414Z,1006.2
2022-10-05T06:19:46.647Z,1006.2
2022-10-05T06:21:02.893Z,1006.2
2022-10-05T06:22:19.128Z,1006.2
2022-10-05T06:23:35.366Z,1006.2
2022-10-05T06:24:51.622Z,1006.1
2022-10-05T06:26:07.850Z,1006.2
2022-10-05T06:27:24.087Z,1006.1
2022-10-05T06:28:39.343Z,1006.1
2022-10-05T06:29:55.587Z,1006
2022-10-05T06:31:11.818Z,1006.1
2022-10-05T06:32:28.070Z,1006.1
2022-10-05T06:33:44.300Z,1006.1
2022-10-05T06:35:00.544Z,1006.1
2022-10-05T06:36:16.781Z,1006.2
2022-10-05T06:37:33.022Z,1006.2
2022-10-05T06:38:49.254Z,1006.3
2022-10-05T06:40:05.502Z,1006.3
2022-10-05T06:41:21.742Z,1006.3
2022-10-05T06:42:37.973Z,1006.3
2022-10-05T06:43:54.213Z,1006.2
2022-10-05T06:45:09.472Z,1006.3
2022-10-05T06:46:25.722Z,1006.3
2022-10-05T06:47:41.960Z,1006.3
2022-10-05T06:48:58.193Z,1006.3
2022-10-05T06:50:14.432Z,1006.3
2022-10-05T06:51:30.665Z,1006.3
2022-10-05T06:52:46.906Z,1006.2
2022-10-05T06:54:03.145Z,1006.2
2022-10-05T06:55:19.398Z,1006.3
2022-10-05T06:56:35.625Z,1006.3
2022-10-05T06:57:51.868Z,1006.2
2022-10-05T06:59:08.112Z,1006.2
2022-10-05T07:00:24.350Z,1006.3
2022-10-05T07:01:39.611Z,1006.3
2022-10-05T07:02:55.851Z,1006.3
2022-10-05T07:04:12.072Z,1006.2
2022-10-05T07:05:28.329Z,1006.3
2022-10-05T07:06:44.570Z,1006.3
2022-10-05T07:08:00.808Z,1006.4
2022-10-05T07:09:16.069Z,1006.4
2022-10-05T07:10:32.298Z,1006.4
2022-10-05T07:11:48.534Z,1006.4
2022-10-05T07:13:04.789Z,1006.4
2022-10-05T07:14:21.027Z,1006.4
2022-10-05T07:15:37.258Z,1006.5
2022-10-05T07:16:53.488Z,1006.4
2022-10-05T07:18:09.734Z,1006.4
2022-10-05T07:19:25.967Z,1006.4
2022-10-05T07:20:42.208Z,1006.3
2022-10-05T07:21:58.446Z,1006.4
2022-10-05T07:23:14.692Z,1006.3
2022-10-05T07:24:30.926Z,1006.4
2022-10-05T07:25:46.177Z,1006.4
2022-10-05T07:27:02.433Z,1006.4
2022-10-05T07:28:18.667Z,1006.4
2022-10-05T07:29:34.905Z,1006.3
2022-10-05T07:30:51.140Z,1006.3
2022-10-05T07:32:07.379Z,1006.3
2022-10-05T07:33:23.619Z,1006.3
2022-10-05T07:34:39.851Z,1006.3
2022-10-05T07:35:56.089Z,1006.3
2022-10-05T07:37:12.327Z,1006.3
2022-10-05T07:38:28.575Z,1006.3
2022-10-05T07:39:44.808Z,1006.2
2022-10-05T07:41:01.048Z,1006.3
2022-10-05T07:42:16.309Z,1006.3
2022-10-05T07:43:32.539Z,1006.3
2022-10-05T07:44:48.776Z,1006.2
2022-10-05T07:46:05.024Z,1006.3
2022-10-05T07:47:21.250Z,1006.3
2022-10-05T07:48:37.491Z,1006.2
2022-10-05T07:49:53.730Z,1006.1
2022-10-05T07:51:09.969Z,1006.2
2022-10-05T07:52:26.211Z,1006.2
2022-10-05T07:53:42.460Z,1006.1
2022-10-05T07:54:58.690Z,1006.1
2022-10-05T07:56:14.922Z,1006.1
2022-10-05T07:57:31.176Z,1006.2
2022-10-05T07:58:46.422Z,1006.1
2022-10-05T08:00:02.656Z,1006
2022-10-05T08:01:18.900Z,1006
2022-10-05T08:02:35.137Z,1006
2022-10-05T08:03:51.374Z,1006
2022-10-05T08:05:07.610Z,1006
2022-10-05T08:06:23.845Z,1006
2022-10-05T08:07:40.104Z,1006.1
2022-10-05T08:08:56.327Z,1006.1
2022-10-05T08:10:12.580Z,1006.1
2022-10-05T08:11:28.802Z,1006.1
2022-10-05T08:12:45.047Z,1006.1
2022-10-05T08:14:01.275Z,1006.1
2022-10-05T08:15:16.546Z,1006.1
2022-10-05T08:16:32.768Z,1006.1
2022-10-05T08:17:49.007Z,1006.1
2022-10-05T08:19:05.258Z,1006.1
2022-10-05T08:20:21.494Z,1006.1
2022-10-05T08:21:37.726Z,1006.1
2022-10-05T08:24:10.213Z,1006.1
2022-10-05T08:25:26.450Z,1006.2
2022-10-05T08:26:42.683Z,1006.1
2022-10-05T08:27:58.931Z,1006.1
2022-10-05T08:29:15.161Z,1006.1
2022-10-05T08:30:31.395Z,1006.1
2022-10-05T08:31:46.662Z,1006
2022-10-05T08:33:02.893Z,1006.1
2022-10-05T08:34:19.137Z,1006.1
2022-10-05T08:35:35.365Z,1006.1
2022-10-05T08:36:51.606Z,1006.1
2022-10-05T08:38:07.846Z,1006.1
2022-10-05T08:39:24.082Z,1006.2
2022-10-05T08:40:40.315Z,1006.1
2022-10-05T08:41:56.562Z,1006.1
2022-10-05T08:43:12.792Z,1006.1
2022-10-05T08:44:29.043Z,1006.2
2022-10-05T08:45:45.280Z,1006.2
2022-10-05T08:47:01.507Z,1006.1
2022-10-05T08:48:16.775Z,1006.2
2022-10-05T08:49:33.016Z,1006.2
2022-10-05T08:50:49.248Z,1006.2
2022-10-05T08:52:05.476Z,1006.2
2022-10-05T08:53:21.731Z,1006.2
2022-10-05T08:54:37.968Z,1006.2
2022-10-05T08:55:54.215Z,1006.2
2022-10-05T08:57:10.432Z,1006.2
2022-10-05T08:58:26.683Z,1006.2
2022-10-05T08:59:42.917Z,1006.1
2022-10-05T09:00:59.148Z,1006
2022-10-05T09:02:15.393Z,1006.1
2022-10-05T09:03:31.633Z,1006.1
2022-10-05T09:04:46.879Z,1006
2022-10-05T09:06:03.122Z,1006
2022-10-05T09:07:19.369Z,1006
2022-10-05T09:08:35.600Z,1006
2022-10-05T09:09:51.841Z,1006
2022-10-05T09:11:08.087Z,1006
2022-10-05T09:12:24.319Z,1006
2022-10-05T09:13:40.558Z,1006
2022-10-05T09:14:56.796Z,1006
2022-10-05T09:16:13.035Z,1006
2022-10-05T09:17:29.274Z,1006
2022-10-05T09:18:45.511Z,1005.9
2022-10-05T09:20:01.744Z,1005.9
2022-10-05T09:21:17.012Z,1006
2022-10-05T09:22:33.242Z,1005.9
2022-10-05T09:23:49.476Z,1006
2022-10-05T09:25:05.710Z,1006
2022-10-05T09:26:21.950Z,1006
2022-10-05T09:27:38.192Z,1005.9
2022-10-05T09:28:54.440Z,1005.9
2022-10-05T09:30:10.671Z,1005.9
2022-10-05T09:31:26.913Z,1005.9
2022-10-05T09:32:43.150Z,1005.9
2022-10-05T09:33:59.387Z,1005.8
2022-10-05T09:35:15.625Z,1005.8
2022-10-05T09:36:31.862Z,1005.8
2022-10-05T09:37:47.119Z,1005.7
2022-10-05T09:39:03.358Z,1005.8
2022-10-05T09:40:19.596Z,1005.8
2022-10-05T09:41:35.829Z,1005.8
2022-10-05T09:42:52.078Z,1005.7
2022-10-05T09:44:08.322Z,1005.7
2022-10-05T09:45:24.549Z,1005.7
2022-10-05T09:46:40.784Z,1005.7
2022-10-05T09:47:57.020Z,1005.7
2022-10-05T09:49:13.271Z,1005.7
2022-10-05T09:50:29.500Z,1005.7
2022-10-05T09:51:45.737Z,1005.7
2022-10-05T09:53:01.984Z,1005.7
2022-10-05T09:54:17.233Z,1005.7
2022-10-05T09:55:33.472Z,1005.7
2022-10-05T09:56:49.705Z,1005.6
2022-10-05T09:58:05.945Z,1005.7
2022-10-05T09:59:22.196Z,1005.7
2022-10-05T10:00:38.422Z,1005.6
2022-10-05T10:01:54.679Z,1005.6
2022-10-05T10:03:10.904Z,1005.6
2022-10-05T10:04:27.141Z,1005.6
2022-10-05T10:05:43.397Z,1005.6
2022-10-05T10:06:59.631Z,1005.6
2022-10-05T10:08:15.857Z,1005.6
2022-10-05T10:09:32.096Z,1005.7
2022-10-05T10:10:47.367Z,1005.6
2022-10-05T10:12:03.598Z,1005.6
2022-10-05T10:13:19.838Z,1005.5
2022-10-05T10:14:36.084Z,1005.5
2022-10-05T10:15:52.314Z,1005.5
2022-10-05T10:17:08.573Z,1005.5
2022-10-05T10:18:24.799Z,1005.5
2022-10-05T10:19:41.036Z,1005.5
2022-10-05T10:20:57.276Z,1005.5
2022-10-05T10:22:13.515Z,1005.5
2022-10-05T10:23:29.769Z,1005.5
2022-10-05T10:24:46.008Z,1005.6
2022-10-05T10:26:02.233Z,1005.5
2022-10-05T10:27:17.506Z,1005.5
2022-10-05T10:28:33.746Z,1005.5
2022-10-05T10:29:49.978Z,1005.6
2022-10-05T10:31:06.206Z,1005.5
2022-10-05T10:32:22.447Z,1005.5
2022-10-05T10:33:38.687Z,1005.5
2022-10-05T10:34:54.938Z,1005.5
2022-10-05T10:36:11.169Z,1005.5
2022-10-05T10:37:27.406Z,1005.5
2022-10-05T10:38:43.661Z,1005.4
2022-10-05T10:39:59.888Z,1005.5
2022-10-05T10:41:16.130Z,1005.5
2022-10-05T10:42:32.376Z,1005.4
2022-10-05T10:43:47.616Z,1005.5
2022-10-05T10:45:03.862Z,1005.4
2022-10-05T10:46:20.104Z,1005.4
2022-10-05T10:47:36.340Z,1005.3
2022-10-05T10:48:52.591Z,1005.3
2022-10-05T10:50:08.828Z,1005.2
2022-10-05T10:51:25.072Z,1005.2
2022-10-05T10:52:41.300Z,1005.4
2022-10-05T10:53:57.536Z,1005.4
2022-10-05T10:55:13.780Z,1005.3
2022-10-05T10:56:30.017Z,1005.2
2022-10-05T10:57:46.273Z,1005.2
2022-10-05T10:59:02.497Z,1005.3
2022-10-05T11:00:17.751Z,1005.3
2022-10-05T11:01:33.998Z,1005.2
2022-10-05T11:02:50.233Z,1005.2
2022-10-05T11:04:06.476Z,1005.3
2022-10-05T11:05:22.711Z,1005.2
2022-10-05T11:06:38.949Z,1005.3
2022-10-05T11:07:55.200Z,1005.3
2022-10-05T11:09:11.430Z,1005.3
2022-10-05T11:10:27.670Z,1005.2
2022-10-05T11:11:43.904Z,1005.3
2022-10-05T11:13:00.142Z,1005.3
2022-10-05T11:14:16.391Z,1005.2
2022-10-05T11:15:32.633Z,1005.3
2022-10-05T11:16:47.875Z,1005.2
2022-10-05T11:18:04.112Z,1005.3
2022-10-05T11:19:20.361Z,1005.2
2022-10-05T11:20:36.599Z,1005.2
2022-10-05T11:21:52.837Z,1005.2
2022-10-05T11:23:09.077Z,1005.2
2022-10-05T11:24:24.327Z,1005.2
2022-10-05T11:25:40.584Z,1005.1
2022-10-05T11:26:56.810Z,1005.2
2022-10-05T11:28:13.051Z,1005.2
2022-10-05T11:29:29.294Z,1005.2
2022-10-05T11:30:45.529Z,1005.1
2022-10-05T11:32:01.772Z,1005.1
2022-10-05T11:33:18.011Z,1005.1
2022-10-05T11:34:34.244Z,1005.1
2022-10-05T11:35:50.489Z,1005
2022-10-05T11:37:06.724Z,1005.1
2022-10-05T11:38:22.967Z,1005.1
2022-10-05T11:39:39.211Z,1005.1
2022-10-05T11:40:54.456Z,1005.1
2022-10-05T11:42:10.697Z,1005
2022-10-05T11:43:26.940Z,1005
2022-10-05T11:44:43.174Z,1005
2022-10-05T11:45:59.412Z,1005
2022-10-05T11:47:15.666Z,1005
2022-10-05T11:48:31.903Z,1005
2022-10-05T11:49:48.133Z,1005
2022-10-05T11:51:04.378Z,1005
2022-10-05T11:52:20.628Z,1005
2022-10-05T11:53:36.848Z,1005
2022-10-05T11:54:53.106Z,1004.9
2022-10-05T11:56:09.328Z,1004.9
2022-10-05T11:57:24.594Z,1004.9
2022-10-05T11:58:40.833Z,1004.9
2022-10-05T11:59:57.066Z,1004.8
2022-10-05T12:01:13.317Z,1004.9
2022-10-05T12:02:29.551Z,1004.9
2022-10-05T12:03:45.790Z,1004.9
2022-10-05T12:05:02.026Z,1004.9
2022-10-05T12:06:18.263Z,1004.8
2022-10-05T12:07:34.514Z,1004.9
2022-10-05T12:08:50.745Z,1004.8
2022-10-05T12:10:07.002Z,1004.8
2022-10-05T12:11:23.224Z,1004.9
2022-10-05T12:12:39.463Z,1004.8
2022-10-05T12:13:54.733Z,1004.8
2022-10-05T12:15:10.972Z,1004.7
2022-10-05T12:16:27.212Z,1004.8
2022-10-05T12:17:43.453Z,1004.8
2022-10-05T12:18:59.678Z,1004.8
2022-10-05T12:20:15.923Z,1004.7
2022-10-05T12:21:32.158Z,1004.7
2022-10-05T12:22:48.409Z,1004.7
2022-10-05T12:24:04.645Z,1004.7
2022-10-05T12:25:20.878Z,1004.7
2022-10-05T12:26:37.121Z,1004.7
2022-10-05T12:27:53.361Z,1004.6
2022-10-05T12:29:09.596Z,1004.6
2022-10-05T12:30:24.857Z,1004.6
2022-10-05T12:31:41.083Z,1004.6
2022-10-05T12:32:57.334Z,1004.7
2022-10-05T12:34:13.567Z,1004.6
2022-10-05T12:35:29.818Z,1004.6
2022-10-05T12:36:46.048Z,1004.6
2022-10-05T12:38:02.284Z,1004.6
2022-10-05T12:39:18.520Z,1004.6
2022-10-05T12:40:34.761Z,1004.5
2022-10-05T12:41:51.002Z,1004.6
2022-10-05T12:43:07.237Z,1004.6
2022-10-05T12:44:23.488Z,1004.6
2022-10-05T12:45:39.723Z,1004.6
2022-10-05T12:46:54.985Z,1004.6
2022-10-05T12:48:11.219Z,1004.6
2022-10-05T12:49:27.445Z,1004.5
2022-10-05T12:50:43.691Z,1004.5
2022-10-05T12:51:59.937Z,1004.5
2022-10-05T12:53:16.162Z,1004.5
2022-10-05T12:54:32.412Z,1004.4
2022-10-05T12:55:48.649Z,1004.4
2022-10-05T12:57:04.888Z,1004.4
2022-10-05T12:58:21.122Z,1004.4
2022-10-05T12:59:37.365Z,1004.4
2022-10-05T13:00:53.613Z,1004.4
2022-10-05T13:02:09.833Z,1004.4
2022-10-05T13:03:25.086Z,1004.4
2022-10-05T13:04:41.327Z,1004.4
2022-10-05T13:05:57.568Z,1004.4
2022-10-05T13:07:13.802Z,1004.4
2022-10-05T13:08:30.047Z,1004.4
2022-10-05T13:09:46.287Z,1004.4
2022-10-05T13:11:02.519Z,1004.4
2022-10-05T13:12:18.766Z,1004.3
2022-10-05T13:13:35.007Z,1004.4
2022-10-05T13:14:51.233Z,1004.4
2022-10-05T13:16:07.475Z,1004.4
2022-10-05T13:17:23.726Z,1004.3
2022-10-05T13:18:39.954Z,1004.3
2022-10-05T13:19:55.208Z,1004.3
2022-10-05T13:21:11.434Z,1004.3
2022-10-05T13:22:27.688Z,1004.4
2022-10-05T13:23:43.927Z,1004.3
2022-10-05T13:25:00.161Z,1004.3
2022-10-05T13:26:16.394Z,1004.4
2022-10-05T13:27:32.625Z,1004.3
2022-10-05T13:28:48.867Z,1004.3
2022-10-05T13:30:05.122Z,1004.3
2022-10-05T13:31:21.359Z,1004.3
2022-10-05T13:32:37.584Z,1004.3
2022-10-05T13:33:53.837Z,1004.2
2022-10-05T13:35:10.054Z,1004.3
2022-10-05T13:36:25.326Z,1004.3
2022-10-05T13:37:41.550Z,1004.3
2022-10-05T13:38:57.794Z,1004.3
2022-10-05T13:40:14.027Z,1004.2
2022-10-05T13:41:30.276Z,1004.2
2022-10-05T13:42:46.501Z,1004.1
2022-10-05T13:44:02.754Z,1004.2
2022-10-05T13:45:18.986Z,1004.1
2022-10-05T13:46:35.224Z,1004.2
2022-10-05T13:47:51.468Z,1004.1
2022-10-05T13:49:07.705Z,1004.1
2022-10-05T13:50:23.935Z,1004.2
2022-10-05T13:51:40.191Z,1004.2
2022-10-05T13:52:55.434Z,1004.1
2022-10-05T13:54:11.670Z,1004.1
2022-10-05T13:55:27.898Z,1004.1
2022-10-05T13:56:44.155Z,1004.1
2022-10-05T13:58:00.393Z,1004.1
2022-10-05T13:59:16.611Z,1004.1
2022-10-05T14:00:32.861Z,1004.1
2022-10-05T14:01:49.091Z,1004.1
2022-10-05T14:03:05.327Z,1004.1
2022-10-05T14:04:21.571Z,1004.1
2022-10-05T14:05:37.818Z,1004.1
2022-10-05T14:06:54.039Z,1004.1
2022-10-05T14:08:10.288Z,1004.1
2022-10-05T14:09:25.543Z,1004.1
2022-10-05T14:10:41.778Z,1004.1
2022-10-05T14:11:58.016Z,1004.1
2022-10-05T14:13:14.256Z,1004.1
2022-10-05T14:14:30.499Z,1004.1
2022-10-05T14:15:46.729Z,1004.1
2022-10-05T14:17:02.976Z,1004
2022-10-05T14:18:19.218Z,1004
2022-10-05T14:19:35.445Z,1004
2022-10-05T14:20:51.684Z,1003.9
2022-10-05T14:22:07.915Z,1003.9
2022-10-05T14:23:24.162Z,1003.9
2022-10-05T14:24:40.399Z,1003.9
2022-10-05T14:25:55.664Z,1003.9
2022-10-05T14:27:11.903Z,1003.9
2022-10-05T14:28:28.133Z,1003.9
2022-10-05T14:29:44.390Z,1003.9
2022-10-05T14:31:00.619Z,1003.9
2022-10-05T14:32:16.852Z,1003.9
2022-10-05T14:33:33.083Z,1003.9
2022-10-05T14:34:49.331Z,1003.8
2022-10-05T14:36:05.557Z,1003.9
2022-10-05T14:37:21.814Z,1003.8
2022-10-05T14:38:38.037Z,1003.9
2022-10-05T14:39:54.272Z,1003.9
2022-10-05T14:41:10.511Z,1003.8
2022-10-05T14:42:25.778Z,1003.9
2022-10-05T14:43:42.004Z,1003.9
2022-10-05T14:44:58.256Z,1003.8
2022-10-05T14:46:14.505Z,1003.9
2022-10-05T14:47:30.734Z,1003.9
2022-10-05T14:48:46.963Z,1003.8
2022-10-05T14:50:03.209Z,1003.8
2022-10-05T14:51:19.457Z,1003.8
2022-10-05T14:52:35.694Z,1003.8
2022-10-05T14:53:51.918Z,1003.8
2022-10-05T14:55:08.165Z,1003.8
2022-10-05T14:56:24.394Z,1003.7
2022-10-05T14:57:40.647Z,1003.8
2022-10-05T14:58:55.882Z,1003.7
2022-10-05T15:00:12.125Z,1003.7
2022-10-05T15:01:28.379Z,1003.7
2022-10-05T15:02:44.604Z,1003.7
2022-10-05T15:04:00.842Z,1003.7
2022-10-05T15:05:17.082Z,1003.7
2022-10-05T15:06:33.330Z,1003.7
2022-10-05T15:07:49.561Z,1003.7
2022-10-05T15:09:05.793Z,1003.7
2022-10-05T15:10:22.044Z,1003.7
2022-10-05T15:11:38.280Z,1003.7
2022-10-05T15:12:54.523Z,1003.7
2022-10-05T15:14:10.753Z,1003.7
2022-10-05T15:15:26.007Z,1003.6
2022-10-05T15:16:42.245Z,1003.6
2022-10-05T15:17:58.489Z,1003.6
2022-10-05T15:19:14.743Z,1003.7
2022-10-05T15:20:30.970Z,1003.6
2022-10-05T15:21:47.207Z,1003.7
2022-10-05T15:23:03.430Z,1003.6
2022-10-05T15:24:19.689Z,1003.6
2022-10-05T15:25:35.919Z,1003.6
2022-10-05T15:26:52.152Z,1003.6
2022-10-05T15:28:08.399Z,1003.6
2022-10-05T15:29:24.636Z,1003.6
2022-10-05T15:30:40.868Z,1003.6
2022-10-05T15:31:56.116Z,1003.6
2022-10-05T15:33:12.352Z,1003.5
2022-10-05T15:34:28.591Z,1003.6
2022-10-05T15:35:44.836Z,1003.6
2022-10-05T15:37:01.079Z,1003.5
2022-10-05T15:38:17.304Z,1003.5
2022-10-05T15:39:32.585Z,1003.5
2022-10-05T15:40:48.828Z,1003.6
2022-10-05T15:42:05.058Z,1003.5
2022-10-05T15:43:21.282Z,1003.5
2022-10-05T15:44:37.517Z,1003.5
2022-10-05T15:45:53.765Z,1003.5
2022-10-05T15:47:09.997Z,1003.5
2022-10-05T15:48:26.256Z,1003.5
2022-10-05T15:49:42.489Z,1003.4
2022-10-05T15:50:58.719Z,1003.5
2022-10-05T15:52:14.950Z,1003.6
2022-10-05T15:53:31.208Z,1003.5
2022-10-05T15:54:47.443Z,1003.5
2022-10-05T15:56:02.686Z,1003.6
2022-10-05T15:57:18.938Z,1003.6